createdAt,value
2022-07-31T00:00:57.803Z,1013.29
2022-07-31T00:01:57.806Z,1013.27
2022-07-31T00:02:57.896Z,1013.29
2022-07-31T00:03:57.935Z,1013.28
2022-07-31T00:04:57.819Z,1013.26
2022-07-31T00:05:57.801Z,1013.28
2022-07-31T00:06:57.806Z,1013.31
2022-07-31T00:07:57.802Z,1013.30
2022-07-31T00:08:57.803Z,1013.29
2022-07-31T00:09:57.801Z,1013.28
2022-07-31T00:10:57.806Z,1013.26
2022-07-31T00:11:57.801Z,1013.30
2022-07-31T00:12:57.803Z,1013.29
2022-07-31T00:13:58.745Z,1013.31
2022-07-31T00:14:57.800Z,1013.34
2022-07-31T00:15:57.799Z,1013.29
2022-07-31T00:16:57.799Z,1013.34
2022-07-31T00:17:57.800Z,1013.31
2022-07-31T00:18:58.255Z,1013.33
2022-07-31T00:19:57.795Z,1013.30
2022-07-31T00:20:57.798Z,1013.30
2022-07-31T00:21:57.796Z,1013.28
2022-07-31T00:22:57.796Z,1013.27
2022-07-31T00:23:57.796Z,1013.28
2022-07-31T00:24:57.798Z,1013.23
2022-07-31T00:25:57.797Z,1013.22
2022-07-31T00:26:57.797Z,1013.21
2022-07-31T00:27:57.793Z,1013.22
2022-07-31T00:28:57.792Z,1013.24
2022-07-31T00:29:57.793Z,1013.21
2022-07-31T00:30:57.790Z,1013.19
2022-07-31T00:31:57.792Z,1013.19
2022-07-31T00:32:57.791Z,1013.20
2022-07-31T00:33:57.790Z,1013.20
2022-07-31T00:34:57.797Z,1013.21
2022-07-31T00:35:57.793Z,1013.23
2022-07-31T00:36:57.792Z,1013.20
2022-07-31T00:38:24.728Z,1013.20
2022-07-31T00:38:57.793Z,1013.16
2022-07-31T00:39:58.138Z,1013.19
2022-07-31T00:40:57.786Z,1013.14
2022-07-31T00:41:57.791Z,1013.12
2022-07-31T00:42:57.787Z,1013.10
2022-07-31T00:43:57.789Z,1013.10
2022-07-31T00:44:57.786Z,1013.08
2022-07-31T00:45:58.909Z,1013.07
2022-07-31T00:46:57.783Z,1013.06
2022-07-31T00:47:57.783Z,1013.08
2022-07-31T00:48:57.812Z,1013.03
2022-07-31T00:49:57.788Z,1013.04
2022-07-31T00:50:57.784Z,1013.04
2022-07-31T00:51:57.782Z,1013.01
2022-07-31T00:52:57.782Z,1013.01
2022-07-31T00:53:57.787Z,1013.01
2022-07-31T00:54:57.780Z,1013.02
2022-07-31T00:55:57.783Z,1013.00
2022-07-31T00:56:57.783Z,1013.01
2022-07-31T00:57:57.784Z,1013.01
2022-07-31T00:58:57.780Z,1013.02
2022-07-31T00:59:57.783Z,1012.99
2022-07-31T01:00:57.849Z,1013.00
2022-07-31T01:01:57.781Z,1012.98
2022-07-31T01:02:57.776Z,1012.99
2022-07-31T01:03:57.781Z,1012.98
2022-07-31T01:04:57.780Z,1013.00
2022-07-31T01:05:57.778Z,1013.00
2022-07-31T01:06:57.774Z,1012.97
2022-07-31T01:07:57.775Z,1012.95
2022-07-31T01:08:57.774Z,1013.00
2022-07-31T01:09:57.778Z,1012.97
2022-07-31T01:10:57.770Z,1012.97
2022-07-31T01:11:57.773Z,1012.99
2022-07-31T01:12:57.772Z,1012.96
2022-07-31T01:13:57.772Z,1013.02
2022-07-31T01:14:57.769Z,1013.03
2022-07-31T01:15:57.772Z,1013.04
2022-07-31T01:16:57.769Z,1013.01
2022-07-31T01:17:57.769Z,1012.99
2022-07-31T01:18:57.769Z,1013.00
2022-07-31T01:19:57.768Z,1013.02
2022-07-31T01:20:57.767Z,1012.99
2022-07-31T01:21:57.765Z,1013.01
2022-07-31T01:22:57.764Z,1013.03
2022-07-31T01:23:57.766Z,1012.99
2022-07-31T01:24:57.764Z,1013.00
2022-07-31T01:25:57.766Z,1012.97
2022-07-31T01:26:57.761Z,1012.98
2022-07-31T01:27:57.769Z,1012.99
2022-07-31T01:28:57.762Z,1012.98
2022-07-31T01:29:57.764Z,1013.00
2022-07-31T01:31:11.001Z,1012.97
2022-07-31T01:31:57.769Z,1012.97
2022-07-31T01:32:57.771Z,1012.97
2022-07-31T01:33:57.764Z,1012.94
2022-07-31T01:34:57.755Z,1012.94
2022-07-31T01:35:57.759Z,1012.91
2022-07-31T01:36:57.755Z,1012.92
2022-07-31T01:37:57.760Z,1012.88
2022-07-31T01:38:57.754Z,1012.92
2022-07-31T01:39:57.765Z,1012.93
2022-07-31T01:40:57.753Z,1012.96
2022-07-31T01:41:57.753Z,1012.94
2022-07-31T01:42:57.752Z,1012.88
2022-07-31T01:43:57.755Z,1012.90
2022-07-31T01:44:57.755Z,1012.87
2022-07-31T01:45:57.756Z,1012.85
2022-07-31T01:46:57.747Z,1012.83
2022-07-31T01:47:57.747Z,1012.81
2022-07-31T01:48:57.784Z,1012.81
2022-07-31T01:49:57.748Z,1012.80
2022-07-31T01:50:57.748Z,1012.83
2022-07-31T01:52:04.508Z,1012.82
2022-07-31T01:52:57.744Z,1012.81
2022-07-31T01:53:57.743Z,1012.82
2022-07-31T01:54:57.741Z,1012.77
2022-07-31T01:56:03.434Z,1012.81
2022-07-31T01:56:57.744Z,1012.79
2022-07-31T01:57:57.743Z,1012.81
2022-07-31T01:58:57.742Z,1012.82
2022-07-31T01:59:57.743Z,1012.80
2022-07-31T02:00:57.777Z,1012.78
2022-07-31T02:01:57.743Z,1012.78
2022-07-31T02:02:57.742Z,1012.80
2022-07-31T02:04:00.705Z,1012.78
2022-07-31T02:04:57.737Z,1012.80
2022-07-31T02:05:57.736Z,1012.78
2022-07-31T02:06:57.735Z,1012.75
2022-07-31T02:07:57.733Z,1012.76
2022-07-31T02:08:57.732Z,1012.76
2022-07-31T02:09:58.786Z,1012.75
2022-07-31T02:10:57.731Z,1012.75
2022-07-31T02:11:57.734Z,1012.76
2022-07-31T02:12:57.728Z,1012.77
2022-07-31T02:13:57.734Z,1012.78
2022-07-31T02:14:57.732Z,1012.77
2022-07-31T02:15:57.730Z,1012.78
2022-07-31T02:16:57.727Z,1012.75
2022-07-31T02:17:57.728Z,1012.75
2022-07-31T02:18:57.728Z,1012.75
2022-07-31T02:19:59.885Z,1012.74
2022-07-31T02:20:57.724Z,1012.74
2022-07-31T02:21:57.727Z,1012.73
2022-07-31T02:22:57.723Z,1012.70
2022-07-31T02:23:57.721Z,1012.71
2022-07-31T02:24:57.720Z,1012.71
2022-07-31T02:25:57.720Z,1012.71
2022-07-31T02:26:57.716Z,1012.72
2022-07-31T02:27:59.170Z,1012.68
2022-07-31T02:28:57.716Z,1012.71
2022-07-31T02:29:57.718Z,1012.69
2022-07-31T02:30:57.717Z,1012.70
2022-07-31T02:32:01.980Z,1012.64
2022-07-31T02:32:57.713Z,1012.66
2022-07-31T02:33:57.713Z,1012.61
2022-07-31T02:34:57.716Z,1012.64
2022-07-31T02:35:57.717Z,1012.68
2022-07-31T02:36:57.713Z,1012.66
2022-07-31T02:37:57.712Z,1012.61
2022-07-31T02:38:57.714Z,1012.58
2022-07-31T02:39:57.709Z,1012.57
2022-07-31T02:40:57.705Z,1012.59
2022-07-31T02:41:57.712Z,1012.55
2022-07-31T02:42:57.703Z,1012.54
2022-07-31T02:43:57.708Z,1012.58
2022-07-31T02:44:57.702Z,1012.55
2022-07-31T02:45:57.702Z,1012.54
2022-07-31T02:46:57.701Z,1012.50
2022-07-31T02:47:57.703Z,1012.50
2022-07-31T02:48:57.766Z,1012.53
2022-07-31T02:49:57.701Z,1012.49
2022-07-31T02:50:57.696Z,1012.50
2022-07-31T02:51:57.699Z,1012.50
2022-07-31T02:52:57.697Z,1012.49
2022-07-31T02:53:57.699Z,1012.53
2022-07-31T02:54:57.694Z,1012.47
2022-07-31T02:55:57.695Z,1012.48
2022-07-31T02:56:57.693Z,1012.45
2022-07-31T02:57:57.692Z,1012.46
2022-07-31T02:58:57.693Z,1012.44
2022-07-31T02:59:57.692Z,1012.46
2022-07-31T03:00:57.745Z,1012.46
2022-07-31T03:01:57.692Z,1012.46
2022-07-31T03:02:57.686Z,1012.47
2022-07-31T03:03:57.689Z,1012.44
2022-07-31T03:04:57.688Z,1012.47
2022-07-31T03:05:57.687Z,1012.52
2022-07-31T03:06:57.686Z,1012.47
2022-07-31T03:07:57.683Z,1012.56
2022-07-31T03:08:57.688Z,1012.57
2022-07-31T03:09:57.694Z,1012.57
2022-07-31T03:10:57.680Z,1012.60
2022-07-31T03:11:57.684Z,1012.59
2022-07-31T03:12:57.677Z,1012.58
2022-07-31T03:13:57.682Z,1012.57
2022-07-31T03:14:57.677Z,1012.57
2022-07-31T03:15:57.679Z,1012.52
2022-07-31T03:16:57.678Z,1012.52
2022-07-31T03:17:57.677Z,1012.52
2022-07-31T03:18:57.675Z,1012.52
2022-07-31T03:19:57.673Z,1012.52
2022-07-31T03:20:57.677Z,1012.51
2022-07-31T03:21:57.670Z,1012.51
2022-07-31T03:22:57.671Z,1012.50
2022-07-31T03:23:57.674Z,1012.51
2022-07-31T03:24:57.669Z,1012.54
2022-07-31T03:25:57.672Z,1012.56
2022-07-31T03:26:57.667Z,1012.56
2022-07-31T03:27:57.663Z,1012.60
2022-07-31T03:28:57.664Z,1012.54
2022-07-31T03:29:57.662Z,1012.53
2022-07-31T03:30:57.664Z,1012.52
2022-07-31T03:31:57.663Z,1012.53
2022-07-31T03:32:57.664Z,1012.54
2022-07-31T03:33:57.660Z,1012.59
2022-07-31T03:34:57.658Z,1012.61
2022-07-31T03:35:57.659Z,1012.61
2022-07-31T03:36:57.655Z,1012.59
2022-07-31T03:37:57.660Z,1012.63
2022-07-31T03:38:57.653Z,1012.62
2022-07-31T03:39:57.654Z,1012.61
2022-07-31T03:40:57.654Z,1012.61
2022-07-31T03:41:57.652Z,1012.62
2022-07-31T03:42:57.650Z,1012.61
2022-07-31T03:43:57.653Z,1012.60
2022-07-31T03:44:57.652Z,1012.64
2022-07-31T03:45:57.649Z,1012.64
2022-07-31T03:46:57.646Z,1012.60
2022-07-31T03:47:57.647Z,1012.61
2022-07-31T03:48:57.736Z,1012.61
2022-07-31T03:49:57.651Z,1012.59
2022-07-31T03:50:57.643Z,1012.58
2022-07-31T03:51:57.650Z,1012.57
2022-07-31T03:52:58.340Z,1012.56
2022-07-31T03:53:57.643Z,1012.54
2022-07-31T03:54:57.637Z,1012.58
2022-07-31T03:55:57.640Z,1012.56
2022-07-31T03:56:57.635Z,1012.56
2022-07-31T03:57:57.640Z,1012.58
2022-07-31T03:58:57.634Z,1012.55
2022-07-31T03:59:57.634Z,1012.52
2022-07-31T04:00:57.633Z,1012.53
2022-07-31T04:01:58.903Z,1012.51
2022-07-31T04:02:57.771Z,1012.56
2022-07-31T04:03:57.630Z,1012.53
2022-07-31T04:04:57.627Z,1012.55
2022-07-31T04:05:57.632Z,1012.53
2022-07-31T04:06:57.626Z,1012.58
2022-07-31T04:07:57.628Z,1012.58
2022-07-31T04:08:57.628Z,1012.57
2022-07-31T04:09:57.630Z,1012.60
2022-07-31T04:10:57.622Z,1012.58
2022-07-31T04:11:57.627Z,1012.59
2022-07-31T04:12:57.626Z,1012.64
2022-07-31T04:13:57.624Z,1012.64
2022-07-31T04:14:57.626Z,1012.63
2022-07-31T04:15:57.627Z,1012.65
2022-07-31T04:16:57.641Z,1012.62
2022-07-31T04:17:57.625Z,1012.58
2022-07-31T04:18:57.617Z,1012.60
2022-07-31T04:19:57.620Z,1012.63
2022-07-31T04:20:57.629Z,1012.61
2022-07-31T04:21:57.631Z,1012.65
2022-07-31T04:22:57.616Z,1012.67
2022-07-31T04:23:57.614Z,1012.68
2022-07-31T04:24:57.614Z,1012.67
2022-07-31T04:25:57.615Z,1012.65
2022-07-31T04:26:57.609Z,1012.66
2022-07-31T04:27:57.610Z,1012.68
2022-07-31T04:28:57.606Z,1012.66
2022-07-31T04:29:57.611Z,1012.66
2022-07-31T04:30:57.605Z,1012.67
2022-07-31T04:31:57.608Z,1012.64
2022-07-31T04:32:57.603Z,1012.63
2022-07-31T04:33:57.606Z,1012.63
2022-07-31T04:34:57.602Z,1012.66
2022-07-31T04:35:57.602Z,1012.67
2022-07-31T04:36:57.608Z,1012.64
2022-07-31T04:37:57.603Z,1012.64
2022-07-31T04:38:57.599Z,1012.63
2022-07-31T04:39:57.605Z,1012.67
2022-07-31T04:40:57.600Z,1012.68
2022-07-31T04:41:57.599Z,1012.63
2022-07-31T04:42:57.598Z,1012.69
2022-07-31T04:43:57.596Z,1012.71
2022-07-31T04:44:57.805Z,1012.66
2022-07-31T04:45:57.595Z,1012.71
2022-07-31T04:46:57.593Z,1012.69
2022-07-31T04:47:57.593Z,1012.71
2022-07-31T04:48:57.637Z,1012.73
2022-07-31T04:49:57.591Z,1012.71
2022-07-31T04:50:57.592Z,1012.72
2022-07-31T04:51:57.597Z,1012.73
2022-07-31T04:52:57.591Z,1012.74
2022-07-31T04:53:57.595Z,1012.77
2022-07-31T04:54:57.594Z,1012.76
2022-07-31T04:55:57.587Z,1012.76
2022-07-31T04:56:57.599Z,1012.77
2022-07-31T04:57:57.587Z,1012.73
2022-07-31T04:58:57.590Z,1012.72
2022-07-31T05:00:00.218Z,1012.71
2022-07-31T05:00:57.591Z,1012.71
2022-07-31T05:01:57.670Z,1012.70
2022-07-31T05:02:57.585Z,1012.69
2022-07-31T05:03:57.586Z,1012.70
2022-07-31T05:04:57.704Z,1012.70
2022-07-31T05:05:57.582Z,1012.71
2022-07-31T05:06:57.581Z,1012.70
2022-07-31T05:07:57.580Z,1012.69
2022-07-31T05:08:57.578Z,1012.73
2022-07-31T05:09:57.573Z,1012.68
2022-07-31T05:10:57.575Z,1012.69
2022-07-31T05:11:57.575Z,1012.69
2022-07-31T05:12:57.575Z,1012.68
2022-07-31T05:13:57.575Z,1012.70
2022-07-31T05:14:57.572Z,1012.67
2022-07-31T05:15:57.570Z,1012.70
2022-07-31T05:16:57.572Z,1012.68
2022-07-31T05:17:57.573Z,1012.68
2022-07-31T05:18:57.571Z,1012.71
2022-07-31T05:19:57.569Z,1012.71
2022-07-31T05:20:57.569Z,1012.70
2022-07-31T05:22:01.789Z,1012.72
2022-07-31T05:22:57.565Z,1012.72
2022-07-31T05:23:57.565Z,1012.72
2022-07-31T05:24:57.567Z,1012.74
2022-07-31T05:25:57.565Z,1012.74
2022-07-31T05:26:57.566Z,1012.73
2022-07-31T05:27:57.564Z,1012.72
2022-07-31T05:28:58.519Z,1012.70
2022-07-31T05:29:57.562Z,1012.73
2022-07-31T05:30:57.564Z,1012.72
2022-07-31T05:31:59.602Z,1012.69
2022-07-31T05:32:57.559Z,1012.69
2022-07-31T05:33:57.559Z,1012.69
2022-07-31T05:34:57.563Z,1012.66
2022-07-31T05:35:57.560Z,1012.67
2022-07-31T05:36:57.559Z,1012.65
2022-07-31T05:37:57.559Z,1012.68
2022-07-31T05:38:57.557Z,1012.72
2022-07-31T05:39:57.553Z,1012.71
2022-07-31T05:40:57.557Z,1012.71
2022-07-31T05:41:57.569Z,1012.73
2022-07-31T05:42:57.655Z,1012.72
2022-07-31T05:43:57.551Z,1012.73
2022-07-31T05:44:57.551Z,1012.79
2022-07-31T05:45:57.555Z,1012.78
2022-07-31T05:47:40.074Z,1012.78
2022-07-31T05:48:37.041Z,1012.77
2022-07-31T05:49:37.226Z,1012.76
2022-07-31T05:50:37.041Z,1012.76
2022-07-31T05:51:37.042Z,1012.77
2022-07-31T05:52:37.040Z,1012.77
2022-07-31T05:53:37.041Z,1012.77
2022-07-31T05:54:37.038Z,1012.77
2022-07-31T05:55:37.042Z,1012.76
2022-07-31T05:56:37.039Z,1012.75
2022-07-31T05:57:37.036Z,1012.70
2022-07-31T05:58:37.036Z,1012.70
2022-07-31T05:59:37.052Z,1012.66
2022-07-31T06:00:37.079Z,1012.64
2022-07-31T06:01:37.135Z,1012.66
2022-07-31T06:02:37.045Z,1012.67
2022-07-31T06:03:50.536Z,1012.69
2022-07-31T06:04:37.029Z,1012.69
2022-07-31T06:05:37.039Z,1012.68
2022-07-31T06:06:37.033Z,1012.68
2022-07-31T06:07:37.033Z,1012.67
2022-07-31T06:08:37.033Z,1012.64
2022-07-31T06:09:37.033Z,1012.68
2022-07-31T06:10:37.032Z,1012.67
2022-07-31T06:11:37.030Z,1012.65
2022-07-31T06:12:37.028Z,1012.66
2022-07-31T06:13:37.033Z,1012.64
2022-07-31T06:14:37.027Z,1012.62
2022-07-31T06:15:37.036Z,1012.68
2022-07-31T06:16:37.028Z,1012.67
2022-07-31T06:17:43.622Z,1012.70
2022-07-31T06:18:37.024Z,1012.70
2022-07-31T06:19:37.029Z,1012.71
2022-07-31T06:20:37.242Z,1012.73
2022-07-31T06:21:37.022Z,1012.71
2022-07-31T06:22:37.022Z,1012.71
2022-07-31T06:23:37.025Z,1012.69
2022-07-31T06:24:37.019Z,1012.68
2022-07-31T06:25:39.126Z,1012.69
2022-07-31T06:26:37.021Z,1012.67
2022-07-31T06:27:37.026Z,1012.67
2022-07-31T06:28:48.084Z,1012.63
2022-07-31T06:29:41.050Z,1012.67
2022-07-31T06:30:37.018Z,1012.66
2022-07-31T06:31:37.024Z,1012.67
2022-07-31T06:32:37.018Z,1012.65
2022-07-31T06:33:38.025Z,1012.60
2022-07-31T06:34:37.015Z,1012.60
2022-07-31T06:35:37.016Z,1012.62
2022-07-31T06:36:37.019Z,1012.59
2022-07-31T06:37:37.015Z,1012.56
2022-07-31T06:38:37.014Z,1012.51
2022-07-31T06:39:54.028Z,1012.52
2022-07-31T06:40:37.011Z,1012.46
2022-07-31T06:41:37.014Z,1012.48
2022-07-31T06:42:37.011Z,1012.47
2022-07-31T06:43:37.015Z,1012.45
2022-07-31T06:44:45.772Z,1012.48
2022-07-31T06:45:52.089Z,1012.54
2022-07-31T06:46:37.008Z,1012.53
2022-07-31T06:47:37.008Z,1012.57
2022-07-31T06:48:37.011Z,1012.60
2022-07-31T06:49:37.103Z,1012.63
2022-07-31T06:50:37.009Z,1012.68
2022-07-31T06:51:37.011Z,1012.70
2022-07-31T06:52:37.024Z,1012.69
2022-07-31T06:53:37.010Z,1012.70
2022-07-31T06:54:37.005Z,1012.65
2022-07-31T06:55:37.008Z,1012.71
2022-07-31T06:56:37.003Z,1012.67
2022-07-31T06:57:37.006Z,1012.69
2022-07-31T06:58:37.005Z,1012.70
2022-07-31T06:59:39.761Z,1012.68
2022-07-31T07:00:37.002Z,1012.68
2022-07-31T07:01:37.089Z,1012.64
2022-07-31T07:02:37.002Z,1012.69
2022-07-31T07:03:37.005Z,1012.71
2022-07-31T07:05:05.163Z,1012.72
2022-07-31T07:05:37.002Z,1012.74
2022-07-31T07:06:37.001Z,1012.72
2022-07-31T07:07:37.005Z,1012.71
2022-07-31T07:08:37.004Z,1012.73
2022-07-31T07:09:37.003Z,1012.72
2022-07-31T07:10:37.001Z,1012.66
2022-07-31T07:11:37.001Z,1012.69
2022-07-31T07:12:36.997Z,1012.70
2022-07-31T07:13:45.732Z,1012.69
2022-07-31T07:14:36.997Z,1012.67
2022-07-31T07:15:37.003Z,1012.68
2022-07-31T07:16:36.996Z,1012.68
2022-07-31T07:17:37.001Z,1012.64
2022-07-31T07:18:36.995Z,1012.67
2022-07-31T07:19:36.996Z,1012.61
2022-07-31T07:20:36.995Z,1012.60
2022-07-31T07:21:36.995Z,1012.60
2022-07-31T07:22:36.994Z,1012.56
2022-07-31T07:23:37.011Z,1012.58
2022-07-31T07:24:37.051Z,1012.55
2022-07-31T07:25:37.004Z,1012.59
2022-07-31T07:26:36.991Z,1012.62
2022-07-31T07:27:36.996Z,1012.61
2022-07-31T07:28:36.991Z,1012.62
2022-07-31T07:29:36.996Z,1012.63
2022-07-31T07:30:36.995Z,1012.59
2022-07-31T07:31:36.992Z,1012.58
2022-07-31T07:32:36.988Z,1012.57
2022-07-31T07:33:41.082Z,1012.56
2022-07-31T07:34:36.989Z,1012.56
2022-07-31T07:35:36.991Z,1012.52
2022-07-31T07:36:36.990Z,1012.56
2022-07-31T07:37:39.211Z,1012.56
2022-07-31T07:38:36.989Z,1012.60
2022-07-31T07:39:36.988Z,1012.60
2022-07-31T07:40:36.987Z,1012.56
2022-07-31T07:41:36.987Z,1012.53
2022-07-31T07:42:36.987Z,1012.57
2022-07-31T07:43:36.987Z,1012.55
2022-07-31T07:44:36.985Z,1012.55
2022-07-31T07:45:36.988Z,1012.57
2022-07-31T07:46:36.984Z,1012.54
2022-07-31T07:48:05.753Z,1012.54
2022-07-31T07:48:36.983Z,1012.57
2022-07-31T07:49:36.982Z,1012.54
2022-07-31T07:50:36.986Z,1012.54
2022-07-31T07:51:37.000Z,1012.49
2022-07-31T07:52:39.956Z,1012.49
2022-07-31T07:53:36.983Z,1012.48
2022-07-31T07:54:36.983Z,1012.47
2022-07-31T07:55:37.574Z,1012.45
2022-07-31T07:56:36.979Z,1012.41
2022-07-31T07:57:36.982Z,1012.41
2022-07-31T07:58:36.978Z,1012.39
2022-07-31T07:59:36.982Z,1012.40
2022-07-31T08:00:36.976Z,1012.41
2022-07-31T08:01:37.075Z,1012.43
2022-07-31T08:02:36.976Z,1012.43
2022-07-31T08:03:50.185Z,1012.43
2022-07-31T08:04:36.975Z,1012.40
2022-07-31T08:05:36.983Z,1012.36
2022-07-31T08:06:36.976Z,1012.40
2022-07-31T08:07:42.022Z,1012.34
2022-07-31T08:08:36.974Z,1012.34
2022-07-31T08:09:36.977Z,1012.30
2022-07-31T08:10:36.974Z,1012.33
2022-07-31T08:11:36.978Z,1012.33
2022-07-31T08:12:36.974Z,1012.34
2022-07-31T08:13:40.657Z,1012.34
2022-07-31T08:14:36.973Z,1012.37
2022-07-31T08:15:36.976Z,1012.37
2022-07-31T08:16:36.972Z,1012.42
2022-07-31T08:17:36.975Z,1012.39
2022-07-31T08:18:36.971Z,1012.38
2022-07-31T08:19:36.976Z,1012.36
2022-07-31T08:20:36.972Z,1012.38
2022-07-31T08:21:36.975Z,1012.40
2022-07-31T08:22:36.988Z,1012.37
2022-07-31T08:23:36.978Z,1012.35
2022-07-31T08:24:36.973Z,1012.36
2022-07-31T08:25:36.971Z,1012.31
2022-07-31T08:26:36.970Z,1012.28
2022-07-31T08:27:40.423Z,1012.31
2022-07-31T08:28:36.973Z,1012.32
2022-07-31T08:29:37.086Z,1012.27
2022-07-31T08:30:36.968Z,1012.26
2022-07-31T08:31:36.972Z,1012.24
2022-07-31T08:32:36.969Z,1012.22
2022-07-31T08:33:36.975Z,1012.25
2022-07-31T08:34:40.380Z,1012.25
2022-07-31T08:35:36.977Z,1012.31
2022-07-31T08:36:36.976Z,1012.28
2022-07-31T08:37:59.286Z,1012.30
2022-07-31T08:38:36.969Z,1012.32
2022-07-31T08:39:36.971Z,1012.33
2022-07-31T08:40:42.861Z,1012.40
2022-07-31T08:41:36.972Z,1012.38
2022-07-31T08:42:36.968Z,1012.42
2022-07-31T08:44:00.618Z,1012.43
2022-07-31T08:44:36.972Z,1012.36
2022-07-31T08:45:40.249Z,1012.43
2022-07-31T08:46:36.967Z,1012.43
2022-07-31T08:47:36.972Z,1012.42
2022-07-31T08:48:36.968Z,1012.41
2022-07-31T08:49:37.053Z,1012.38
2022-07-31T08:50:36.971Z,1012.39
2022-07-31T08:51:51.676Z,1012.43
2022-07-31T08:52:37.017Z,1012.41
2022-07-31T08:53:36.976Z,1012.41
2022-07-31T08:54:36.977Z,1012.41
2022-07-31T08:55:56.621Z,1012.40
2022-07-31T08:56:36.971Z,1012.43
2022-07-31T08:57:36.973Z,1012.38
2022-07-31T08:58:39.638Z,1012.43
2022-07-31T08:59:36.974Z,1012.41
2022-07-31T09:00:36.972Z,1012.38
2022-07-31T09:01:37.150Z,1012.38
2022-07-31T09:02:36.974Z,1012.39
2022-07-31T09:03:36.972Z,1012.37
2022-07-31T09:04:36.970Z,1012.35
2022-07-31T09:05:42.081Z,1012.34
2022-07-31T09:06:36.967Z,1012.32
2022-07-31T09:07:36.976Z,1012.36
2022-07-31T09:08:36.969Z,1012.34
2022-07-31T09:09:51.828Z,1012.37
2022-07-31T09:10:36.974Z,1012.35
2022-07-31T09:11:36.973Z,1012.35
2022-07-31T09:12:36.967Z,1012.35
2022-07-31T09:13:36.968Z,1012.31
2022-07-31T09:14:36.968Z,1012.36
2022-07-31T09:15:36.971Z,1012.35
2022-07-31T09:16:36.968Z,1012.31
2022-07-31T09:17:36.967Z,1012.31
2022-07-31T09:18:36.968Z,1012.33
2022-07-31T09:19:51.785Z,1012.29
2022-07-31T09:20:36.967Z,1012.35
2022-07-31T09:21:36.975Z,1012.32
2022-07-31T09:22:36.970Z,1012.29
2022-07-31T09:23:36.969Z,1012.30
2022-07-31T09:24:39.755Z,1012.31
2022-07-31T09:25:36.972Z,1012.29
2022-07-31T09:26:36.970Z,1012.27
2022-07-31T09:27:36.975Z,1012.27
2022-07-31T09:28:36.970Z,1012.25
2022-07-31T09:29:36.974Z,1012.23
2022-07-31T09:30:56.365Z,1012.26
2022-07-31T09:31:36.969Z,1012.25
2022-07-31T09:32:36.969Z,1012.23
2022-07-31T09:33:36.973Z,1012.24
2022-07-31T09:34:36.970Z,1012.22
2022-07-31T09:35:36.975Z,1012.28
2022-07-31T09:36:36.971Z,1012.27
2022-07-31T09:37:36.973Z,1012.25
2022-07-31T09:38:36.969Z,1012.22
2022-07-31T09:39:36.973Z,1012.18
2022-07-31T09:40:37.517Z,1012.26
2022-07-31T09:42:01.194Z,1012.21
2022-07-31T09:42:36.971Z,1012.17
2022-07-31T09:43:51.495Z,1012.17
2022-07-31T09:44:36.971Z,1012.16
2022-07-31T09:45:36.974Z,1012.18
2022-07-31T09:46:36.974Z,1012.17
2022-07-31T09:47:36.974Z,1012.18
2022-07-31T09:48:36.971Z,1012.19
2022-07-31T09:49:37.082Z,1012.25
2022-07-31T09:50:36.973Z,1012.24
2022-07-31T09:51:36.977Z,1012.23
2022-07-31T09:52:36.973Z,1012.24
2022-07-31T09:53:39.335Z,1012.23
2022-07-31T09:54:36.976Z,1012.25
2022-07-31T09:55:36.986Z,1012.22
2022-07-31T09:56:36.974Z,1012.25
2022-07-31T09:57:36.982Z,1012.26
2022-07-31T09:58:36.975Z,1012.25
2022-07-31T09:59:36.983Z,1012.26
2022-07-31T10:00:37.090Z,1012.24
2022-07-31T10:01:36.976Z,1012.24
2022-07-31T10:02:36.980Z,1012.22
2022-07-31T10:03:36.982Z,1012.19
2022-07-31T10:04:36.978Z,1012.20
2022-07-31T10:05:36.985Z,1012.19
2022-07-31T10:06:36.982Z,1012.17
2022-07-31T10:07:36.979Z,1012.16
2022-07-31T10:08:36.983Z,1012.13
2022-07-31T10:09:36.986Z,1012.16
2022-07-31T10:10:36.985Z,1012.17
2022-07-31T10:11:36.978Z,1012.16
2022-07-31T10:12:36.985Z,1012.16
2022-07-31T10:13:36.977Z,1012.18
2022-07-31T10:14:36.982Z,1012.14
2022-07-31T10:15:36.978Z,1012.13
2022-07-31T10:16:36.981Z,1012.14
2022-07-31T10:17:36.988Z,1012.16
2022-07-31T10:18:38.644Z,1012.16
2022-07-31T10:19:36.980Z,1012.19
2022-07-31T10:20:36.981Z,1012.17
2022-07-31T10:21:36.982Z,1012.13
2022-07-31T10:22:36.982Z,1012.15
2022-07-31T10:23:36.984Z,1012.12
2022-07-31T10:24:36.981Z,1012.10
2022-07-31T10:25:36.980Z,1012.11
2022-07-31T10:26:59.215Z,1012.04
2022-07-31T10:27:39.653Z,1012.04
2022-07-31T10:28:36.982Z,1012.01
2022-07-31T10:29:36.993Z,1012.04
2022-07-31T10:30:36.995Z,1012.03
2022-07-31T10:31:36.986Z,1012.06
2022-07-31T10:32:36.985Z,1012.02
2022-07-31T10:33:45.143Z,1011.99
2022-07-31T10:34:36.991Z,1011.95
2022-07-31T10:35:37.155Z,1011.98
2022-07-31T10:36:36.986Z,1011.96
2022-07-31T10:37:36.983Z,1011.91
2022-07-31T10:38:38.500Z,1011.91
2022-07-31T10:39:36.985Z,1011.90
2022-07-31T10:40:37.005Z,1011.89
2022-07-31T10:41:36.985Z,1011.85
2022-07-31T10:42:36.984Z,1011.85
2022-07-31T10:43:36.986Z,1011.83
2022-07-31T10:44:38.968Z,1011.83
2022-07-31T10:45:36.988Z,1011.83
2022-07-31T10:46:36.989Z,1011.85
2022-07-31T10:47:36.998Z,1011.84
2022-07-31T10:48:36.987Z,1011.80
2022-07-31T10:49:37.063Z,1011.78
2022-07-31T10:50:36.989Z,1011.78
2022-07-31T10:51:36.991Z,1011.79
2022-07-31T10:52:36.991Z,1011.82
2022-07-31T10:53:50.184Z,1011.79
2022-07-31T10:54:36.991Z,1011.83
2022-07-31T10:55:36.990Z,1011.82
2022-07-31T10:56:36.989Z,1011.81
2022-07-31T10:57:56.108Z,1011.82
2022-07-31T10:58:36.994Z,1011.84
2022-07-31T10:59:38.296Z,1011.81
2022-07-31T11:00:36.989Z,1011.84
2022-07-31T11:01:37.084Z,1011.80
2022-07-31T11:02:36.993Z,1011.79
2022-07-31T11:03:36.990Z,1011.82
2022-07-31T11:04:37.004Z,1011.85
2022-07-31T11:06:02.060Z,1011.82
2022-07-31T11:06:36.993Z,1011.82
2022-07-31T11:07:36.997Z,1011.82
2022-07-31T11:08:36.995Z,1011.77
2022-07-31T11:09:51.064Z,1011.77
2022-07-31T11:10:36.997Z,1011.78
2022-07-31T11:11:36.994Z,1011.74
2022-07-31T11:12:36.993Z,1011.73
2022-07-31T11:13:37.341Z,1011.73
2022-07-31T11:14:36.993Z,1011.69
2022-07-31T11:15:36.996Z,1011.71
2022-07-31T11:16:37.005Z,1011.72
2022-07-31T11:18:23.520Z,1011.72
2022-07-31T11:18:36.997Z,1011.72
2022-07-31T11:19:41.043Z,1011.76
2022-07-31T11:20:37.000Z,1011.77
2022-07-31T11:21:38.904Z,1011.80
2022-07-31T11:22:37.002Z,1011.80
2022-07-31T11:23:37.003Z,1011.81
2022-07-31T11:24:36.998Z,1011.80
2022-07-31T11:25:37.006Z,1011.83
2022-07-31T11:26:42.135Z,1011.82
2022-07-31T11:27:37.018Z,1011.80
2022-07-31T11:28:37.003Z,1011.81
2022-07-31T11:30:01.944Z,1011.79
2022-07-31T11:30:37.005Z,1011.77
2022-07-31T11:31:37.003Z,1011.77
2022-07-31T11:32:37.005Z,1011.79
2022-07-31T11:33:41.643Z,1011.77
2022-07-31T11:34:37.042Z,1011.74
2022-07-31T11:35:37.009Z,1011.76
2022-07-31T11:36:37.011Z,1011.72
2022-07-31T11:37:56.454Z,1011.72
2022-07-31T11:38:37.010Z,1011.73
2022-07-31T11:39:37.397Z,1011.70
2022-07-31T11:40:37.007Z,1011.68
2022-07-31T11:41:44.252Z,1011.69
2022-07-31T11:42:37.013Z,1011.68
2022-07-31T11:43:37.008Z,1011.68
2022-07-31T11:44:37.010Z,1011.70
2022-07-31T11:45:37.014Z,1011.70
2022-07-31T11:46:37.013Z,1011.68
2022-07-31T11:48:10.975Z,1011.68
2022-07-31T11:48:40.972Z,1011.67
2022-07-31T11:49:47.959Z,1011.68
2022-07-31T11:50:37.467Z,1011.70
2022-07-31T11:51:37.011Z,1011.72
2022-07-31T11:52:37.942Z,1011.71
2022-07-31T11:53:37.012Z,1011.69
2022-07-31T11:54:37.020Z,1011.69
2022-07-31T11:55:37.014Z,1011.68
2022-07-31T11:56:37.024Z,1011.65
2022-07-31T11:57:51.143Z,1011.64
2022-07-31T11:58:37.058Z,1011.63
2022-07-31T11:59:46.177Z,1011.65
2022-07-31T12:00:37.127Z,1011.63
2022-07-31T12:01:37.028Z,1011.63
2022-07-31T12:02:37.097Z,1011.60
2022-07-31T12:03:37.073Z,1011.58
2022-07-31T12:04:37.023Z,1011.59
2022-07-31T12:05:38.826Z,1011.47
2022-07-31T12:06:37.023Z,1011.47